Glenelg, Maryland
Current Conditions -  °F | °C
As of 3:55 AM on Saturday 22 Nov 2014 (Local Time) from KGAI Reporting Station
Clear Clear  
Wind Chill: -8°   Ceiling: Unl
Heat Index: -8°   Visibility: 10mi
Dew Point: -11°   Wind: 0mph
Humidity: 79%   Direction: NA
Pressure: 30.54"   Gusts: NA
Location:  39.26°N, 77°W
Report Text: KGAI 220855Z 00000KT 10SM CLR M08/M11 A3054 RMK AO1 57007
Loading
Personal Weather Stations






























Interactive Weather Map New forecast layout! Learn more

10-Day Weather Forecast

Advertisements
Track Severe Weather on mobile